Arctic - Eastern Arctic: Past 24 Hour Conditions

 

Pond Inlet Airport

12:00 PM EDT 16 April 2014
This table is a summary of hourly weather conditions for the past 24 hours.
Date / Time
(EDT)
Wind(knots) Conditions Visibility(km) Pressure(kPa) Air tempC) Relative humidity(%) Dew pointC) Wind Chill
16 April 2014
12:00 W 3 Mainly Sunny 32 101.2 -18 79 -21 -23
11:00 S 5 Mainly Sunny 32 101.2 -20 84 -22 -27
10:00 WSW 6 Sunny 16 101.2 -20 79 -23 -28
9:00 SSE 7 Sunny 16 101.2 -20 75 -23 -28
8:00 S 5 Sunny 16 101.2 -21 79 -23 -27
7:00 SSE 9 Sunny 16 101.2 -20 80 -23 -30
6:00 SSE 9 Sunny 16 101.2 -22 76 -25 -32
5:00 SSE 9 Sunny 16 101.2 -22 71 -26 -32
4:00 SSE 7 Clear 16 101.2 -21 74 -24 -30
3:00 SE 10 Clear 16 101.2 -21 74 -25 -32
2:00 SE 7 Clear 16 101.2 -23 77 -26 -32
1:00 SSE 6 Clear 16 101.2 -21 80 -24 -29
0:00 E 4 Clear 16 101.2 -21 81 -24 -28
15 April 2014
23:00 E 3 Clear 16 101.2 -20 82 -22 -24
22:00 calm Partly Cloudy 16 101.2 -17 79 -20 *
21:00 calm Light Snow 16 101.2 -17 76 -20 *
20:00 NNE 2 Cloudy 16 101.2 -16 74 -20 -19
19:00 NE 2 Light Snow 40 101.2 -16 71 -20 -19
18:00 N 1 Light Snow 40 101.2 -16 70 -20 -17
17:00 NNW 3 Partly Cloudy 40 101.2 -16 72 -20 -21
16:00 NE 3 Light Snow 64 101.2 -16 71 -21 -21
15:00 N 1 Light Snow 64 101.2 -16 66 -21 -18
14:00 NW 3 Cloudy 56 101.2 -16 64 -21 -21
13:00 NW 2 Cloudy 64 101.2 -16 62 -22 -19
12:00 N 1 Cloudy 64 101.3 -17 59 -23 -19
 
Map of Arctic - Eastern Arctic marine weather areas Baker Lake Airport Chesterfield Inlet Airport Coral Harbour Airport Gjoa Haven Airport Kugaaruk Airport Rankin Inlet Airport Shepherd Bay Airport Whale Cove Airport Arctic Bay Brevoort Island Qikiqtarjuaq Airport Cape Dorset Airport Cape Dyer Cape Hooper Clyde Airport Grise Fiord Airport Hall Beach Airport Igloolik Airport Iqaluit Airport Longstaff Bluff Pangnirtung Airport Pond Inlet Airport Repulse Bay Airport Resolute Airport Resolution Island Rowley Island Airport Taloyoak Airport Wager Bay Akulivik Airport Ivujivik Airport Puvirnituq Airport Kangiqsujuaq Airport Kangirsuk Airport Quaqtaq Airport Tasiujaq Airport Cape Kakkiviak Cape Kiglapait Nain Airport Saglek Cape Mercy Kimmirut Airport Aupaluk Airport Salluit Airport Kangiqsualujjuaq Airport Fort Ross
Legend: buoyBuoy land stationLand Station